createdAt,value
2019-03-12T00:02:52.496Z,94851.9
2019-03-12T00:07:48.478Z,94853.5
2019-03-12T00:12:44.662Z,94867.6
2019-03-12T00:17:40.338Z,94867
2019-03-12T00:22:36.259Z,94864.7
2019-03-12T00:27:32.080Z,94869.6
2019-03-12T00:32:27.997Z,94865.8
2019-03-12T00:37:23.958Z,94781.4
2019-03-12T00:42:20.159Z,94861.6
2019-03-12T00:47:16.162Z,94687.2
2019-03-12T00:52:12.371Z,94822.8
2019-03-12T00:57:08.346Z,94858.1
2019-03-12T01:02:03.843Z,94684.3
2019-03-12T01:06:59.957Z,94866.8
2019-03-12T01:11:56.028Z,94867.3
2019-03-12T01:16:51.933Z,94856.8
2019-03-12T01:21:48.079Z,94856.3
2019-03-12T01:26:44.105Z,94857.8
2019-03-12T01:31:40.069Z,94864.8
2019-03-12T01:36:36.011Z,94870
2019-03-12T01:41:32.402Z,94875.9
2019-03-12T01:46:28.550Z,94769.4
2019-03-12T01:51:24.816Z,94890.1
2019-03-12T01:56:20.887Z,94907
2019-03-12T02:01:16.964Z,94904.3
2019-03-12T02:06:12.792Z,94906.5
2019-03-12T02:11:08.095Z,94914.6
2019-03-12T02:16:04.406Z,94937
2019-03-12T02:21:00.194Z,94927.2
2019-03-12T02:25:56.039Z,94778.5
2019-03-12T02:30:52.058Z,94917.3
2019-03-12T02:35:48.323Z,94910.6
2019-03-12T02:40:44.614Z,94909.8
2019-03-12T02:45:40.432Z,94905.6
2019-03-12T02:50:36.467Z,94899.7
2019-03-12T02:55:32.411Z,94898.1
2019-03-12T03:00:28.218Z,94812.7
2019-03-12T03:05:24.092Z,94903.5
2019-03-12T03:10:20.055Z,94910.1
2019-03-12T03:15:15.856Z,94916.1
2019-03-12T03:20:12.196Z,94914.1
2019-03-12T03:25:08.429Z,94908.6
2019-03-12T03:30:04.629Z,94903.5
2019-03-12T03:35:00.822Z,94914.7
2019-03-12T03:39:56.801Z,94919.7
2019-03-12T03:44:52.805Z,94922.8
2019-03-12T03:49:49.124Z,94926
2019-03-12T03:54:45.321Z,94930.6
2019-03-12T03:59:41.281Z,94942
2019-03-12T04:04:37.546Z,94937.9
2019-03-12T04:09:33.782Z,94948.1
2019-03-12T04:14:29.728Z,94946.3
2019-03-12T04:19:25.888Z,94968.4
2019-03-12T04:24:22.086Z,94974.3
2019-03-12T04:29:18.142Z,94351.5
2019-03-12T04:34:14.368Z,94978.3
2019-03-12T04:39:10.780Z,94988.3
2019-03-12T04:44:06.973Z,94988.8
2019-03-12T04:49:02.699Z,95016.7
2019-03-12T04:53:58.311Z,95013.4
2019-03-12T04:58:54.502Z,95038.4
2019-03-12T05:03:50.456Z,95062.1
2019-03-12T05:08:46.687Z,95078
2019-03-12T05:13:42.819Z,95056.6
2019-03-12T05:18:39.183Z,95061.3
2019-03-12T05:23:35.398Z,95080.7
2019-03-12T05:28:31.733Z,95075.6
2019-03-12T05:33:26.969Z,95072.9
2019-03-12T05:38:23.079Z,94974.4
2019-03-12T05:43:19.096Z,95098.3
2019-03-12T05:48:15.396Z,95096.2
2019-03-12T05:53:11.658Z,95062.4
2019-03-12T05:58:07.397Z,95005
2019-03-12T06:03:03.402Z,95100.7
2019-03-12T06:07:59.724Z,95115
2019-03-12T06:12:56.032Z,95128.7
2019-03-12T06:17:52.054Z,95027.6
2019-03-12T06:22:48.553Z,95136.8
2019-03-12T06:27:44.951Z,95045.4
2019-03-12T06:32:41.202Z,95147.5
2019-03-12T06:37:37.633Z,95145.4
2019-03-12T06:42:33.809Z,95149.8
2019-03-12T06:47:30.107Z,95151.2
2019-03-12T06:52:25.931Z,95160.8
2019-03-12T06:57:21.336Z,95041.6
2019-03-12T07:02:17.296Z,95170.7
2019-03-12T07:07:13.511Z,95168.9
2019-03-12T07:12:09.733Z,95158.9
2019-03-12T07:17:06.540Z,95057.6
2019-03-12T07:22:02.548Z,95454.3
2019-03-12T07:26:58.990Z,95143
2019-03-12T07:31:55.023Z,95140.1
2019-03-12T07:36:51.507Z,95145.7
2019-03-12T07:41:47.675Z,95156
2019-03-12T07:46:44.395Z,95148.9
2019-03-12T07:51:40.582Z,95151.8
2019-03-12T07:56:37.058Z,95168
2019-03-12T08:01:33.505Z,95055.6
2019-03-12T08:06:29.525Z,95168.8
2019-03-12T08:11:25.402Z,95191.9
2019-03-12T08:16:21.725Z,95201.5
2019-03-12T08:21:22.444Z,95195.1
2019-03-12T08:26:14.235Z,95187.7
2019-03-12T08:31:10.317Z,95148.3
2019-03-12T08:36:06.527Z,95183.2
2019-03-12T08:41:02.784Z,95196.5
2019-03-12T08:45:59.129Z,95180
2019-03-12T08:50:55.005Z,95185.7
2019-03-12T08:55:51.499Z,95052.8
2019-03-12T09:00:47.784Z,95081.5
2019-03-12T09:05:43.920Z,95195.5
2019-03-12T09:10:39.914Z,95188.2
2019-03-12T09:15:36.217Z,95203
2019-03-12T09:20:32.487Z,95189.8
2019-03-12T09:25:28.702Z,95179.5
2019-03-12T09:30:25.071Z,95190.2
2019-03-12T09:35:21.509Z,95151.7
2019-03-12T09:40:17.556Z,95211.2
2019-03-12T09:45:13.781Z,95211.3
2019-03-12T09:50:10.052Z,95214.2
2019-03-12T09:55:05.490Z,95205
2019-03-12T10:00:14.945Z,95111.8
2019-03-12T10:04:58.365Z,95223.8
2019-03-12T10:09:54.629Z,95215
2019-03-12T10:14:50.786Z,95220.8
2019-03-12T10:19:47.069Z,95219
2019-03-12T10:24:43.441Z,95163.5
2019-03-12T10:29:39.756Z,95215.1
2019-03-12T10:34:36.048Z,95226.7
2019-03-12T10:39:33.058Z,95125.2
2019-03-12T10:44:29.211Z,95222.4
2019-03-12T10:49:36.858Z,95224
2019-03-12T10:54:22.157Z,95132.5
2019-03-12T10:59:18.493Z,95227.3
2019-03-12T11:04:15.487Z,95230.9
2019-03-12T11:09:11.607Z,95221.2
2019-03-12T11:14:07.902Z,95213.5
2019-03-12T11:19:03.313Z,95224.4
2019-03-12T11:23:59.581Z,95217.1
2019-03-12T11:28:55.648Z,95214.5
2019-03-12T11:33:52.031Z,95210.3
2019-03-12T11:38:48.242Z,95205.6
2019-03-12T11:43:45.260Z,95195.7
2019-03-12T11:48:41.443Z,95181.4
2019-03-12T11:53:37.482Z,95181.6
2019-03-12T11:58:33.601Z,95181.5
2019-03-12T12:03:29.829Z,95199.7
2019-03-12T12:08:26.053Z,95205.9
2019-03-12T12:13:22.299Z,95215.5
2019-03-12T12:18:18.494Z,95219.4
2019-03-12T12:23:14.890Z,95317
2019-03-12T12:28:10.947Z,95334.1
2019-03-12T12:33:07.137Z,95196.2
2019-03-12T12:38:03.592Z,95227.1
2019-03-12T12:43:00.156Z,94395.5
2019-03-12T12:47:56.159Z,95239.8
2019-03-12T12:52:52.318Z,95241.8
2019-03-12T12:57:48.359Z,95240.2
2019-03-12T13:02:44.561Z,95235.8
2019-03-12T13:07:40.833Z,95306.3
2019-03-12T13:12:37.288Z,95245.3
2019-03-12T13:17:33.514Z,95299.6
2019-03-12T13:22:29.679Z,95295.6
2019-03-12T13:27:25.791Z,95240.7
2019-03-12T13:32:22.228Z,95238.3
2019-03-12T13:37:18.415Z,95242.3
2019-03-12T13:42:14.556Z,94607.7
2019-03-12T13:47:10.787Z,95307
2019-03-12T13:52:07.244Z,95343.9
2019-03-12T13:57:03.444Z,95233.7
2019-03-12T14:01:59.650Z,95179
2019-03-12T14:06:55.927Z,95236.6
2019-03-12T14:11:52.339Z,95415.6
2019-03-12T14:16:48.368Z,95302
2019-03-12T14:21:44.622Z,95347
2019-03-12T14:26:40.889Z,95245.9
2019-03-12T14:31:37.359Z,95230.3
2019-03-12T14:36:33.585Z,95318.8
2019-03-12T14:41:29.746Z,95244.4
2019-03-12T14:46:25.791Z,95248.2
2019-03-12T14:51:22.150Z,95314.6
2019-03-12T14:56:18.376Z,95262.8
2019-03-12T15:01:13.895Z,95168.4
2019-03-12T15:06:10.398Z,95265.1
2019-03-12T15:11:06.881Z,95278
2019-03-12T15:16:03.022Z,95352.7
2019-03-12T15:20:58.918Z,95268.6
2019-03-12T15:25:55.323Z,95275.1
2019-03-12T15:30:51.833Z,95277.5
2019-03-12T15:35:47.791Z,95271.1
2019-03-12T15:40:43.988Z,95273.3
2019-03-12T15:45:40.445Z,95305.6
2019-03-12T15:50:36.962Z,95265.3
2019-03-12T15:55:33.270Z,95274.9
2019-03-12T16:00:29.409Z,95271.9
2019-03-12T16:05:28.632Z,95176.7
2019-03-12T16:10:24.781Z,95295.4
2019-03-12T16:15:21.069Z,95306.6
2019-03-12T16:20:17.448Z,95311.7
2019-03-12T16:25:13.722Z,95318.8
2019-03-12T16:30:10.093Z,95322.1
2019-03-12T16:35:06.534Z,95260.5
2019-03-12T16:40:04.836Z,95336.3
2019-03-12T16:45:00.419Z,95443.2
2019-03-12T16:49:55.909Z,95355.8
2019-03-12T16:54:52.298Z,95371.4
2019-03-12T16:59:48.750Z,95372.3
2019-03-12T17:04:44.333Z,95376.5
2019-03-12T17:09:40.817Z,95379
2019-03-12T17:14:38.951Z,95398.8
2019-03-12T17:19:33.526Z,95407.4
2019-03-12T17:24:29.983Z,95377.5
2019-03-12T17:29:27.267Z,95423
2019-03-12T17:34:35.084Z,95422.1
2019-03-12T17:39:20.281Z,95339
2019-03-12T17:44:16.165Z,95338.7
2019-03-12T17:49:12.739Z,95438.7
2019-03-12T17:54:08.540Z,95433.8
2019-03-12T17:59:04.951Z,95446.1
2019-03-12T18:04:01.290Z,95452.8
2019-03-12T18:08:57.601Z,95455.1
2019-03-12T18:13:53.972Z,95386.3
2019-03-12T18:18:49.861Z,95461.1
2019-03-12T18:23:46.279Z,95468.6
2019-03-12T18:28:42.542Z,95477.6
2019-03-12T18:33:38.727Z,95482.2
2019-03-12T18:38:35.225Z,95482.3
2019-03-12T18:43:30.635Z,95486.8
2019-03-12T18:48:27.079Z,95495
2019-03-12T18:53:23.447Z,95498.5
2019-03-12T18:58:19.909Z,95502.6
2019-03-12T19:03:16.094Z,95509.6
2019-03-12T19:08:12.071Z,95513.8
2019-03-12T19:13:08.493Z,95514.8
2019-03-12T19:18:04.522Z,95527.3
2019-03-12T19:23:00.878Z,95535.2
2019-03-12T19:28:00.046Z,95539.7
2019-03-12T19:32:53.551Z,95542.3
2019-03-12T19:37:49.702Z,95547
2019-03-12T19:42:46.436Z,95462.8
2019-03-12T19:47:42.988Z,95555.7
2019-03-12T19:52:39.427Z,95556.1
2019-03-12T19:57:36.723Z,95561.7
2019-03-12T20:02:32.683Z,95571.2
2019-03-12T20:07:28.636Z,95578.2
2019-03-12T20:12:25.003Z,95574
2019-03-12T20:17:21.481Z,95582.1
2019-03-12T20:22:18.210Z,95474.6
2019-03-12T20:27:14.401Z,95576
2019-03-12T20:32:10.893Z,95584.3
2019-03-12T20:37:06.750Z,95583.9
2019-03-12T20:42:03.114Z,95580.3
2019-03-12T20:46:59.388Z,95584.6
2019-03-12T20:51:55.673Z,95577.1
2019-03-12T20:56:52.077Z,95585.4
2019-03-12T21:01:48.265Z,95586
2019-03-12T21:06:44.805Z,95588.5
2019-03-12T21:11:41.180Z,95592.7
2019-03-12T21:16:37.538Z,95586.8
2019-03-12T21:21:33.867Z,95571.3
2019-03-12T21:26:30.262Z,95578.5
2019-03-12T21:31:26.260Z,95571.6
2019-03-12T21:36:22.571Z,95573.7
2019-03-12T21:41:18.687Z,95555.4
2019-03-12T21:46:14.797Z,95566.1
2019-03-12T21:51:11.137Z,95557.2
2019-03-12T21:56:07.010Z,95549.8
2019-03-12T22:01:03.214Z,95558.5
2019-03-12T22:05:59.428Z,95557
2019-03-12T22:10:55.776Z,95550.8
2019-03-12T22:15:52.172Z,95551.1
2019-03-12T22:20:51.133Z,95538.2
2019-03-12T22:25:44.971Z,95538.5
2019-03-12T22:30:41.200Z,95547.1
2019-03-12T22:35:37.721Z,95539.1
2019-03-12T22:40:34.139Z,95542.3
2019-03-12T22:45:30.415Z,95541.1
2019-03-12T22:50:26.869Z,95540.9
2019-03-12T22:55:23.231Z,95539.4
2019-03-12T23:00:19.457Z,95535.5
2019-03-12T23:05:15.972Z,95540.4
2019-03-12T23:10:12.160Z,95540.8
2019-03-12T23:15:08.473Z,95540.6
2019-03-12T23:20:04.814Z,95533.5
2019-03-12T23:25:01.198Z,95536.2
2019-03-12T23:29:57.338Z,95531.7
2019-03-12T23:34:54.007Z,95528.7
2019-03-12T23:39:50.374Z,95523
2019-03-12T23:44:46.472Z,95530.3
2019-03-12T23:49:42.766Z,95522.1
2019-03-12T23:54:38.864Z,95526.4
2019-03-12T23:59:34.722Z,95526.8
